createdAt,value
2022-11-22T00:00:40.182Z,100020.63
2022-11-22T00:03:07.091Z,100017.56
2022-11-22T00:05:34.102Z,100022.06
2022-11-22T00:08:01.102Z,100019.31
2022-11-22T00:10:28.047Z,100027.78
2022-11-22T00:12:55.209Z,100030.97
2022-11-22T00:15:22.029Z,100028.66
2022-11-22T00:17:49.086Z,100031.47
2022-11-22T00:20:16.202Z,100045.19
2022-11-22T00:22:44.913Z,100044.97
2022-11-22T00:25:12.996Z,100041.50
2022-11-22T00:27:40.142Z,100042.56
2022-11-22T00:30:08.174Z,100057.91
2022-11-22T00:32:35.224Z,100053.94
2022-11-22T00:35:02.483Z,100053.00
2022-11-22T00:37:29.326Z,100049.88
2022-11-22T00:39:56.381Z,100060.78
2022-11-22T00:42:23.284Z,100056.72
2022-11-22T00:44:50.103Z,100053.59
2022-11-22T00:47:16.936Z,100055.16
2022-11-22T00:49:43.800Z,100058.91
2022-11-22T00:52:10.591Z,100057.47
2022-11-22T00:54:37.458Z,100047.41
2022-11-22T00:57:04.385Z,100049.25
2022-11-22T00:59:31.361Z,100052.41
2022-11-22T01:01:58.357Z,100046.94
2022-11-22T01:04:25.228Z,100053.72
2022-11-22T01:06:52.082Z,100059.03
2022-11-22T01:09:22.199Z,100057.38
2022-11-22T01:11:49.457Z,100057.28
2022-11-22T01:14:17.393Z,100067.06
2022-11-22T01:16:44.832Z,100067.47
2022-11-22T01:19:12.084Z,100067.28
2022-11-22T01:21:39.694Z,100067.72
2022-11-22T01:24:06.996Z,100059.16
2022-11-22T01:26:34.216Z,100068.19
2022-11-22T01:29:01.375Z,100076.34
2022-11-22T01:31:30.064Z,100080.59
2022-11-22T01:33:57.730Z,100081.00
2022-11-22T01:36:25.002Z,100068.44
2022-11-22T01:38:52.281Z,100071.38
2022-11-22T01:41:19.177Z,100075.50
2022-11-22T01:43:46.043Z,100066.78
2022-11-22T01:46:25.426Z,100055.00
2022-11-22T01:49:05.984Z,100053.66
2022-11-22T01:51:37.887Z,100049.41
2022-11-22T01:54:09.710Z,100052.16
2022-11-22T01:56:38.382Z,100054.09
2022-11-22T01:59:10.271Z,100068.28
2022-11-22T02:01:37.935Z,100071.25
2022-11-22T02:04:06.821Z,100061.91
2022-11-22T02:06:46.980Z,100048.06
2022-11-22T02:09:17.113Z,100061.50
2022-11-22T02:11:48.506Z,100048.44
2022-11-22T02:14:18.962Z,100051.47
2022-11-22T02:16:47.774Z,100059.09
2022-11-22T02:19:33.954Z,100070.56
2022-11-22T02:22:11.294Z,100073.09
2022-11-22T02:24:48.641Z,100067.91
2022-11-22T02:27:15.595Z,100066.69
2022-11-22T02:29:43.013Z,100068.00
2022-11-22T02:32:09.811Z,100070.25
2022-11-22T02:34:50.958Z,100070.44
2022-11-22T02:37:24.192Z,100073.88
2022-11-22T02:39:58.808Z,100075.59
2022-11-22T02:42:27.009Z,100079.16
2022-11-22T02:44:54.000Z,100096.13
2022-11-22T02:47:20.863Z,100102.00
2022-11-22T02:49:47.751Z,100102.00
2022-11-22T02:52:18.742Z,100105.19
2022-11-22T02:54:46.406Z,100109.34
2022-11-22T02:57:13.545Z,100112.41
2022-11-22T02:59:40.453Z,100114.84
2022-11-22T03:02:07.264Z,100122.03
2022-11-22T03:04:34.081Z,100116.63
2022-11-22T03:25:57.441Z,100114.66
2022-11-22T03:28:24.211Z,100116.00
2022-11-22T03:30:51.047Z,100127.38
2022-11-22T03:33:17.914Z,100118.69
2022-11-22T03:35:44.741Z,100107.63
2022-11-22T03:38:11.622Z,100114.84
2022-11-22T03:40:38.577Z,100114.84
2022-11-22T03:43:05.399Z,100128.94
2022-11-22T03:45:32.292Z,100121.09
2022-11-22T03:47:59.170Z,100116.63
2022-11-22T03:50:26.211Z,100131.16
2022-11-22T03:52:53.008Z,100130.16
2022-11-22T03:55:19.884Z,100120.09
2022-11-22T03:57:46.770Z,100123.31
2022-11-22T04:00:14.142Z,100121.38
2022-11-22T04:02:43.808Z,100135.72
2022-11-22T04:05:11.012Z,100142.03
2022-11-22T04:07:38.062Z,100144.88
2022-11-22T04:10:06.036Z,100153.91
2022-11-22T04:12:34.282Z,100160.72
2022-11-22T04:15:07.555Z,100150.97
2022-11-22T04:17:44.173Z,100162.75
2022-11-22T04:20:36.160Z,100169.06
2022-11-22T04:23:09.112Z,100168.72
2022-11-22T04:25:38.086Z,100166.41
2022-11-22T04:28:06.581Z,100164.78
2022-11-22T04:30:52.865Z,100175.75
2022-11-22T04:33:21.186Z,100176.22
2022-11-22T04:35:48.692Z,100182.44
2022-11-22T04:38:17.309Z,100179.91
2022-11-22T04:40:44.834Z,100172.31
2022-11-22T04:43:45.107Z,100174.50
2022-11-22T04:46:13.034Z,100182.00
2022-11-22T04:48:39.977Z,100175.44
2022-11-22T04:51:26.473Z,100174.41
2022-11-22T04:53:53.284Z,100177.97
2022-11-22T04:56:20.253Z,100172.94
2022-11-22T04:58:47.015Z,100178.94
2022-11-22T05:01:14.116Z,100179.34
2022-11-22T05:03:41.010Z,100169.88
2022-11-22T05:06:07.893Z,100160.56
2022-11-22T05:08:34.743Z,100165.47
2022-11-22T05:11:01.662Z,100171.19
2022-11-22T05:13:32.454Z,100181.53
2022-11-22T05:16:00.960Z,100184.56
2022-11-22T05:18:28.932Z,100189.59
2022-11-22T05:20:56.582Z,100189.88
2022-11-22T05:23:42.461Z,100199.44
2022-11-22T05:26:11.125Z,100200.19
2022-11-22T05:28:41.602Z,100209.53
2022-11-22T05:31:17.499Z,100217.56
2022-11-22T05:33:46.099Z,100213.41
2022-11-22T05:36:13.522Z,100203.03
2022-11-22T05:38:40.669Z,100209.44
2022-11-22T05:41:10.135Z,100212.59
2022-11-22T05:43:37.185Z,100220.53
2022-11-22T05:46:22.329Z,100231.38
2022-11-22T05:48:51.333Z,100221.94
2022-11-22T05:51:20.926Z,100232.50
2022-11-22T05:53:48.307Z,100238.31
2022-11-22T05:56:23.681Z,100238.19
2022-11-22T05:58:51.240Z,100247.44
2022-11-22T06:01:21.072Z,100251.91
2022-11-22T06:03:49.136Z,100252.09
2022-11-22T06:06:16.405Z,100255.75
2022-11-22T06:08:48.502Z,100258.66
2022-11-22T06:11:21.893Z,100267.72
2022-11-22T06:13:51.504Z,100269.44
2022-11-22T06:16:18.472Z,100270.41
2022-11-22T06:18:45.647Z,100281.69
2022-11-22T06:21:24.046Z,100276.91
2022-11-22T06:23:55.597Z,100279.72
2022-11-22T06:26:24.357Z,100274.84
2022-11-22T06:28:52.011Z,100271.00
2022-11-22T06:31:27.827Z,100276.38
2022-11-22T06:33:56.696Z,100281.97
2022-11-22T06:36:26.328Z,100285.81
2022-11-22T06:38:53.910Z,100289.44
2022-11-22T06:41:31.210Z,100294.25
2022-11-22T06:43:58.151Z,100287.56
2022-11-22T06:46:27.120Z,100303.66
2022-11-22T06:48:54.063Z,100299.66
2022-11-22T06:51:26.268Z,100299.03
2022-11-22T06:53:56.798Z,100293.97
2022-11-22T06:56:26.672Z,100298.84
2022-11-22T06:58:54.274Z,100304.72
2022-11-22T07:01:29.295Z,100303.00
2022-11-22T07:03:58.688Z,100310.34
2022-11-22T07:06:28.614Z,100307.63
2022-11-22T07:08:56.212Z,100302.69
2022-11-22T07:11:28.616Z,100297.88
2022-11-22T07:14:01.898Z,100310.06
2022-11-22T07:16:32.238Z,100314.47
2022-11-22T07:19:00.548Z,100309.50
2022-11-22T07:21:27.841Z,100314.41
2022-11-22T07:23:55.973Z,100316.56
2022-11-22T07:26:26.101Z,100312.38
2022-11-22T07:28:53.114Z,100311.22
2022-11-22T07:31:20.346Z,100321.25
2022-11-22T07:33:47.807Z,100327.44
2022-11-22T07:36:17.248Z,100324.59
2022-11-22T07:38:45.564Z,100335.44
2022-11-22T07:41:13.323Z,100332.59
2022-11-22T07:43:40.429Z,100329.16
2022-11-22T07:46:17.722Z,100328.69
2022-11-22T07:48:44.551Z,100333.44
2022-11-22T07:51:11.519Z,100336.91
2022-11-22T07:53:38.447Z,100339.19
2022-11-22T07:56:06.515Z,100340.03
2022-11-22T07:58:34.558Z,100333.59
2022-11-22T08:01:21.001Z,100334.81
2022-11-22T08:03:48.164Z,100341.66
2022-11-22T08:06:16.035Z,100343.41
2022-11-22T08:08:43.284Z,100343.81
2022-11-22T08:11:11.344Z,100349.13
2022-11-22T08:13:38.941Z,100354.25
2022-11-22T08:16:12.627Z,100356.41
2022-11-22T08:18:40.211Z,100353.91
2022-11-22T08:21:11.863Z,100366.88
2022-11-22T08:23:40.092Z,100366.13
2022-11-22T08:26:08.779Z,100374.03
2022-11-22T08:28:36.392Z,100369.44
2022-11-22T08:31:10.507Z,100352.88
2022-11-22T08:33:38.141Z,100354.19
2022-11-22T08:36:05.505Z,100364.19
2022-11-22T08:38:32.507Z,100358.28
2022-11-22T08:40:59.554Z,100364.88
2022-11-22T08:43:26.466Z,100357.31
2022-11-22T08:45:59.147Z,100355.31
2022-11-22T08:48:27.322Z,100353.81
2022-11-22T08:50:56.299Z,100352.19
2022-11-22T08:53:23.620Z,100346.81
2022-11-22T08:55:50.605Z,100344.59
2022-11-22T08:58:17.762Z,100337.22
2022-11-22T09:00:44.827Z,100349.41
2022-11-22T09:03:11.661Z,100351.69
2022-11-22T09:08:25.698Z,100346.88
2022-11-22T09:10:52.880Z,100343.50
2022-11-22T09:13:19.650Z,100345.25
2022-11-22T09:15:46.880Z,100337.72
2022-11-22T09:18:13.724Z,100341.41
2022-11-22T09:20:40.611Z,100340.72
2022-11-22T09:23:07.476Z,100338.88
2022-11-22T09:25:34.380Z,100349.28
2022-11-22T09:28:04.004Z,100356.53
2022-11-22T09:30:31.242Z,100342.88
2022-11-22T09:32:58.330Z,100339.59
2022-11-22T09:35:25.117Z,100340.13
2022-11-22T09:37:51.936Z,100340.41
2022-11-22T09:40:18.845Z,100340.38
2022-11-22T09:43:07.069Z,100334.75
2022-11-22T09:45:51.912Z,100324.16
2022-11-22T09:48:32.993Z,100335.59
2022-11-22T09:51:23.345Z,100331.22
2022-11-22T09:54:22.848Z,100326.00
2022-11-22T09:56:54.323Z,100311.97
2022-11-22T09:59:30.546Z,100305.19
2022-11-22T10:02:20.097Z,100308.66
2022-11-22T10:05:08.117Z,100291.50
2022-11-22T10:07:43.525Z,100297.47
2022-11-22T10:10:19.016Z,100297.47
2022-11-22T10:13:04.381Z,100308.88
2022-11-22T10:15:37.089Z,100307.00
2022-11-22T10:18:32.161Z,100311.28
2022-11-22T10:20:59.099Z,100319.59
2022-11-22T10:23:26.921Z,100311.47
2022-11-22T10:26:14.662Z,100305.78
2022-11-22T10:29:05.221Z,100321.09
2022-11-22T10:31:44.300Z,100319.72
2022-11-22T10:34:29.595Z,100305.31
2022-11-22T10:37:05.510Z,100310.34
2022-11-22T10:39:42.225Z,100315.84
2022-11-22T10:42:26.497Z,100315.31
2022-11-22T10:44:58.429Z,100318.69
2022-11-22T10:47:43.543Z,100320.31
2022-11-22T10:50:49.031Z,100319.31
2022-11-22T10:53:49.383Z,100312.00
2022-11-22T10:56:41.000Z,100318.34
2022-11-22T10:59:36.566Z,100318.00
2022-11-22T11:02:16.523Z,100318.41
2022-11-22T11:04:44.888Z,100324.91
2022-11-22T11:07:19.442Z,100325.97
2022-11-22T11:12:47.900Z,100326.34
2022-11-22T11:15:23.315Z,100315.09
2022-11-22T11:17:57.613Z,100325.16
2022-11-22T11:20:31.852Z,100317.81
2022-11-22T11:23:14.234Z,100306.06
2022-11-22T11:25:44.051Z,100311.41
2022-11-22T11:28:13.586Z,100302.88
2022-11-22T11:30:44.058Z,100300.88
2022-11-22T11:33:32.106Z,100304.22
2022-11-22T11:36:22.133Z,100301.38
2022-11-22T11:38:57.146Z,100301.69
2022-11-22T11:41:31.328Z,100315.88
2022-11-22T11:44:00.745Z,100309.44
2022-11-22T11:46:29.908Z,100320.09
2022-11-22T11:49:37.261Z,100320.66
2022-11-22T11:52:08.796Z,100323.63
2022-11-22T11:54:38.719Z,100325.19
2022-11-22T11:57:10.880Z,100327.44
2022-11-22T11:59:37.776Z,100332.81
2022-11-22T12:02:14.001Z,100334.41
2022-11-22T12:04:53.205Z,100334.09
2022-11-22T12:07:36.016Z,100332.13
2022-11-22T12:10:41.373Z,100336.34
2022-11-22T12:13:14.254Z,100330.16
2022-11-22T12:15:52.423Z,100325.31
2022-11-22T12:18:37.627Z,100324.03
2022-11-22T12:21:32.503Z,100328.19
2022-11-22T12:24:41.395Z,100328.72
2022-11-22T12:26:58.048Z,100326.81
2022-11-22T12:29:25.242Z,100325.38
2022-11-22T12:32:05.321Z,100325.66
2022-11-22T12:34:56.524Z,100330.84
2022-11-22T12:37:42.175Z,100328.22
2022-11-22T12:40:18.844Z,100334.72
2022-11-22T12:42:57.562Z,100332.31
2022-11-22T12:45:32.922Z,100333.97
2022-11-22T12:48:06.993Z,100318.09
2022-11-22T12:50:38.534Z,100322.06
2022-11-22T12:53:13.593Z,100325.34
2022-11-22T12:55:51.993Z,100322.16
2022-11-22T12:58:33.685Z,100325.13
2022-11-22T13:01:41.840Z,100327.28
2022-11-22T13:04:11.721Z,100327.66
2022-11-22T13:07:01.939Z,100332.00
2022-11-22T13:09:32.158Z,100330.75
2022-11-22T13:12:06.889Z,100342.63
2022-11-22T13:14:42.540Z,100340.25
2022-11-22T13:17:12.258Z,100345.19
2022-11-22T13:19:49.430Z,100350.25
2022-11-22T13:22:25.274Z,100343.09
2022-11-22T13:25:29.557Z,100346.63
2022-11-22T13:28:01.194Z,100345.00
2022-11-22T13:30:30.278Z,100353.09
2022-11-22T13:32:59.598Z,100352.84
2022-11-22T13:35:31.669Z,100347.81
2022-11-22T13:38:03.240Z,100366.56
2022-11-22T13:40:44.162Z,100369.19
2022-11-22T13:43:19.637Z,100364.94
2022-11-22T13:46:28.832Z,100356.63
2022-11-22T13:48:55.767Z,100355.31
2022-11-22T13:52:05.210Z,100359.34
2022-11-22T13:54:38.198Z,100361.97
2022-11-22T13:57:33.405Z,100358.44
2022-11-22T14:00:12.260Z,100373.75
2022-11-22T14:03:09.108Z,100368.75
2022-11-22T14:05:42.077Z,100365.03
2022-11-22T14:08:30.438Z,100358.97
2022-11-22T14:10:57.385Z,100373.25
2022-11-22T14:13:44.043Z,100377.06
2022-11-22T14:16:23.947Z,100371.03
2022-11-22T14:19:23.356Z,100370.06
2022-11-22T14:21:52.962Z,100375.13
2022-11-22T14:24:46.116Z,100360.50
2022-11-22T14:27:15.878Z,100343.75
2022-11-22T14:30:01.013Z,100345.53
2022-11-22T14:32:41.695Z,100347.19
2022-11-22T14:35:29.479Z,100355.47
2022-11-22T14:38:07.278Z,100361.66
2022-11-22T14:40:41.503Z,100355.81
2022-11-22T14:43:11.116Z,100361.34
2022-11-22T14:45:50.954Z,100351.56
2022-11-22T14:48:19.784Z,100360.16
2022-11-22T14:51:01.726Z,100358.03
2022-11-22T14:53:49.047Z,100342.97
2022-11-22T14:56:26.929Z,100352.97
2022-11-22T14:59:14.035Z,100342.97
2022-11-22T15:01:47.974Z,100356.75
2022-11-22T15:09:11.064Z,100360.13
2022-11-22T15:09:19.843Z,100351.41
2022-11-22T15:11:05.314Z,100363.59
2022-11-22T15:57:24.539Z,100323.66
2022-11-22T15:59:54.519Z,100327.19
2022-11-22T16:02:33.279Z,100355.94
2022-11-22T16:06:08.767Z,100366.78
2022-11-22T16:07:49.912Z,100373.13
2022-11-22T16:10:42.714Z,100373.78
2022-11-22T16:13:24.464Z,100386.63
2022-11-22T16:16:12.832Z,100386.75
2022-11-22T16:18:40.802Z,100399.44
2022-11-22T16:21:11.376Z,100411.28
2022-11-22T16:23:39.851Z,100415.00
2022-11-22T16:26:30.098Z,100411.09
2022-11-22T16:29:16.435Z,100417.91
2022-11-22T16:31:43.231Z,100428.97
2022-11-22T16:34:15.822Z,100432.03
2022-11-22T16:36:42.760Z,100431.19
2022-11-22T16:39:09.961Z,100445.16
2022-11-22T16:41:36.858Z,100445.00
2022-11-22T16:44:11.101Z,100454.41
2022-11-22T16:46:37.914Z,100445.13
2022-11-22T16:49:19.199Z,100447.75
2022-11-22T16:51:47.923Z,100441.53
2022-11-22T16:54:18.090Z,100431.44
2022-11-22T16:56:46.125Z,100432.91
2022-11-22T16:59:13.080Z,100420.63
2022-11-22T17:01:44.315Z,100410.59
2022-11-22T17:04:26.277Z,100415.28
2022-11-22T17:06:54.112Z,100413.66
2022-11-22T17:09:20.927Z,100414.50
2022-11-22T17:11:47.950Z,100398.91
2022-11-22T17:14:16.455Z,100411.88
2022-11-22T17:16:43.997Z,100403.13
2022-11-22T17:19:30.244Z,100396.16
2022-11-22T17:21:57.678Z,100389.63
2022-11-22T17:24:24.600Z,100368.81
2022-11-22T17:26:51.587Z,100361.88
2022-11-22T17:29:43.471Z,100363.00
2022-11-22T17:32:05.694Z,100359.44
2022-11-22T17:34:32.910Z,100335.34
2022-11-22T17:36:59.970Z,100316.03
2022-11-22T17:39:26.831Z,100308.84
2022-11-22T17:41:53.611Z,100284.94
2022-11-22T17:44:20.583Z,100271.75
2022-11-22T17:46:47.432Z,100238.06
2022-11-22T17:49:16.273Z,100228.69
2022-11-22T17:51:43.648Z,100237.47
2022-11-22T17:54:10.719Z,100248.47
2022-11-22T17:56:37.763Z,100245.03
2022-11-22T17:59:05.017Z,100230.19
2022-11-22T18:01:32.354Z,100221.09
2022-11-22T18:03:59.442Z,100225.44
2022-11-22T18:06:26.677Z,100211.19
2022-11-22T18:08:53.740Z,100216.09
2022-11-22T18:11:20.693Z,100220.47
2022-11-22T18:13:47.661Z,100253.78
2022-11-22T18:16:18.328Z,100257.84
2022-11-22T18:19:01.085Z,100283.84
2022-11-22T18:21:29.654Z,100310.94
2022-11-22T18:24:00.676Z,100324.25
2022-11-22T18:26:43.928Z,100319.34
2022-11-22T18:32:00.344Z,100304.16
2022-11-22T18:34:27.894Z,100295.00
2022-11-22T18:36:57.617Z,100277.94
2022-11-22T18:39:30.590Z,100224.38
2022-11-22T18:41:57.906Z,100250.91
2022-11-22T18:44:24.884Z,100282.00
2022-11-22T18:46:51.965Z,100297.75
2022-11-22T18:49:19.227Z,100293.03
2022-11-22T18:51:46.263Z,100300.94
2022-11-22T18:54:13.483Z,100306.19
2022-11-22T18:56:41.022Z,100306.47
2022-11-22T18:59:12.593Z,100310.66
2022-11-22T19:01:40.933Z,100295.00
2022-11-22T19:04:09.657Z,100285.22
2022-11-22T19:06:36.539Z,100286.69
2022-11-22T19:09:03.765Z,100284.63
2022-11-22T19:11:32.223Z,100282.31
2022-11-22T19:13:59.598Z,100287.66
2022-11-22T19:16:29.657Z,100285.00
2022-11-22T19:18:57.536Z,100283.50
2022-11-22T19:21:26.913Z,100286.59
2022-11-22T19:23:54.748Z,100281.06
2022-11-22T19:26:23.773Z,100259.53
2022-11-22T19:28:55.607Z,100257.34
2022-11-22T19:31:24.572Z,100269.44
2022-11-22T19:33:51.490Z,100276.25
2022-11-22T19:36:20.975Z,100270.97
2022-11-22T19:38:48.631Z,100269.25
2022-11-22T19:41:17.931Z,100254.03
2022-11-22T19:43:45.232Z,100263.84
2022-11-22T19:46:12.452Z,100265.59
2022-11-22T19:48:45.399Z,100257.91
2022-11-22T19:51:15.705Z,100251.78
2022-11-22T19:53:42.577Z,100237.94
2022-11-22T19:56:16.187Z,100245.81
2022-11-22T19:58:44.620Z,100244.88
2022-11-22T20:01:15.661Z,100231.59
2022-11-22T20:03:43.628Z,100233.22
2022-11-22T20:06:13.640Z,100230.34
2022-11-22T20:08:41.159Z,100208.53
2022-11-22T20:11:13.833Z,100212.81
2022-11-22T20:13:46.135Z,100213.41
2022-11-22T20:16:26.148Z,100219.50
2022-11-22T20:18:57.747Z,100212.50
2022-11-22T20:21:26.165Z,100202.56
2022-11-22T20:23:53.682Z,100206.94
2022-11-22T20:26:21.726Z,100207.88
2022-11-22T20:29:01.029Z,100199.56
2022-11-22T20:31:31.259Z,100201.41
2022-11-22T20:33:59.946Z,100193.91
2022-11-22T20:36:31.971Z,100201.75
2022-11-22T20:39:00.421Z,100192.63
2022-11-22T20:41:30.515Z,100193.56
2022-11-22T20:43:57.365Z,100192.06
2022-11-22T20:46:28.739Z,100186.66
2022-11-22T20:48:56.809Z,100189.63
2022-11-22T20:51:26.230Z,100199.56
2022-11-22T20:53:56.496Z,100190.34
2022-11-22T20:56:24.235Z,100184.09
2022-11-22T20:58:52.394Z,100187.44
2022-11-22T21:01:24.725Z,100183.75
2022-11-22T21:03:52.607Z,100188.72
2022-11-22T21:06:21.065Z,100193.00
2022-11-22T21:08:48.068Z,100186.28
2022-11-22T21:11:20.453Z,100185.38
2022-11-22T21:13:47.910Z,100194.34
2022-11-22T21:16:24.486Z,100181.81
2022-11-22T21:18:53.643Z,100170.72
2022-11-22T21:21:24.831Z,100162.97
2022-11-22T21:23:53.844Z,100147.03
2022-11-22T21:26:21.902Z,100153.97
2022-11-22T21:28:49.023Z,100145.19
2022-11-22T21:31:16.374Z,100143.69
2022-11-22T21:33:43.543Z,100156.72
2022-11-22T21:36:13.250Z,100147.16
2022-11-22T21:38:40.328Z,100143.69
2022-11-22T21:41:41.837Z,100141.75
2022-11-22T21:43:59.225Z,100148.44
2022-11-22T21:46:26.252Z,100145.53
2022-11-22T21:48:55.957Z,100145.78
2022-11-22T21:51:26.007Z,100138.50
2022-11-22T21:53:57.656Z,100147.97
2022-11-22T21:56:24.680Z,100130.31
2022-11-22T21:58:51.563Z,100126.00
2022-11-22T22:01:18.541Z,100129.16
2022-11-22T22:03:45.441Z,100130.19
2022-11-22T22:06:12.249Z,100126.38
2022-11-22T22:08:40.751Z,100137.47
2022-11-22T22:11:08.142Z,100108.59
2022-11-22T22:13:35.176Z,100106.50
2022-11-22T22:16:06.783Z,100112.75
2022-11-22T22:18:36.377Z,100101.22
2022-11-22T22:21:04.602Z,100102.84
2022-11-22T22:23:32.224Z,100098.31
2022-11-22T22:26:01.053Z,100102.84
2022-11-22T22:28:29.602Z,100096.47
2022-11-22T22:31:11.086Z,100100.44
2022-11-22T22:33:40.524Z,100102.66
2022-11-22T22:36:08.825Z,100092.59
2022-11-22T22:38:36.187Z,100086.72
2022-11-22T22:41:05.427Z,100077.16
2022-11-22T22:43:35.015Z,100083.25
2022-11-22T22:46:06.733Z,100083.94
2022-11-22T22:48:36.807Z,100081.16
2022-11-22T22:51:18.715Z,100077.06
2022-11-22T22:53:46.547Z,100070.94
2022-11-22T22:56:14.594Z,100074.16
2022-11-22T22:58:41.658Z,100070.78
2022-11-22T23:01:17.445Z,100073.19
2022-11-22T23:03:53.155Z,100065.09
2022-11-22T23:06:21.070Z,100067.50
2022-11-22T23:08:49.735Z,100077.78
2022-11-22T23:11:19.139Z,100058.38
2022-11-22T23:13:46.202Z,100058.22
2022-11-22T23:16:14.566Z,100057.31
2022-11-22T23:18:43.877Z,100054.66
2022-11-22T23:21:13.218Z,100038.13
2022-11-22T23:23:40.426Z,100038.72
2022-11-22T23:26:10.668Z,100040.31
2022-11-22T23:28:38.604Z,100033.25
2022-11-22T23:31:11.262Z,100039.25
2022-11-22T23:33:38.673Z,100044.34
2022-11-22T23:36:11.014Z,100041.47
2022-11-22T23:38:38.137Z,100029.31
2022-11-22T23:41:05.158Z,100027.28
2022-11-22T23:43:32.313Z,100017.78
2022-11-22T23:45:59.330Z,100016.34
2022-11-22T23:48:27.308Z,100018.22
2022-11-22T23:50:54.228Z,99999.38
2022-11-22T23:53:21.358Z,100003.84
2022-11-22T23:55:48.221Z,99997.69
2022-11-22T23:58:15.035Z,99992.59
